sensor_id;sensor_type;location;lat;lon;timestamp;temperature;humidity
62555;DHT22;48610;52.144;8.624;2023-04-07T00:01:47;9.00;99.90
62555;DHT22;48610;52.144;8.624;2023-04-07T00:04:47;9.00;99.90
62555;DHT22;48610;52.144;8.624;2023-04-07T00:07:48;9.00;99.90
62555;DHT22;48610;52.144;8.624;2023-04-07T00:10:49;8.90;99.90
62555;DHT22;48610;52.144;8.624;2023-04-07T00:13:49;8.90;99.90
62555;DHT22;48610;52.144;8.624;2023-04-07T00:16:50;8.60;99.90
62555;DHT22;48610;52.144;8.624;2023-04-07T00:19:50;8.50;99.90
62555;DHT22;48610;52.144;8.624;2023-04-07T00:22:51;8.60;99.90
62555;DHT22;48610;52.144;8.624;2023-04-07T00:25:51;8.70;99.90
62555;DHT22;48610;52.144;8.624;2023-04-07T00:28:52;8.90;99.90
62555;DHT22;48610;52.144;8.624;2023-04-07T00:31:52;9.10;99.90
62555;DHT22;48610;52.144;8.624;2023-04-07T00:34:53;9.00;99.90
62555;DHT22;48610;52.144;8.624;2023-04-07T00:37:54;9.00;99.90
62555;DHT22;48610;52.144;8.624;2023-04-07T00:40:58;8.90;99.90
62555;DHT22;48610;52.144;8.624;2023-04-07T00:43:59;8.80;99.90
62555;DHT22;48610;52.144;8.624;2023-04-07T00:47:00;8.70;99.90
62555;DHT22;48610;52.144;8.624;2023-04-07T00:50:03;8.60;99.90
62555;DHT22;48610;52.144;8.624;2023-04-07T00:53:04;8.50;99.90
62555;DHT22;48610;52.144;8.624;2023-04-07T00:56:05;8.60;99.90
62555;DHT22;48610;52.144;8.624;2023-04-07T00:59:06;8.70;99.90
62555;DHT22;48610;52.144;8.624;2023-04-07T01:02:10;8.80;99.90
62555;DHT22;48610;52.144;8.624;2023-04-07T01:05:51;8.90;99.90
62555;DHT22;48610;52.144;8.624;2023-04-07T01:08:50;9.00;99.90
62555;DHT22;48610;52.144;8.624;2023-04-07T01:12:28;8.90;99.90
62555;DHT22;48610;52.144;8.624;2023-04-07T01:15:33;8.90;99.90
62555;DHT22;48610;52.144;8.624;2023-04-07T01:18:36;8.90;99.90
62555;DHT22;48610;52.144;8.624;2023-04-07T01:21:39;8.90;99.90
62555;DHT22;48610;52.144;8.624;2023-04-07T01:25:08;8.90;99.90
62555;DHT22;48610;52.144;8.624;2023-04-07T01:32:03;8.70;99.90
62555;DHT22;48610;52.144;8.624;2023-04-07T01:35:06;8.70;99.90
62555;DHT22;48610;52.144;8.624;2023-04-07T01:38:10;8.70;99.90
62555;DHT22;48610;52.144;8.624;2023-04-07T01:41:13;8.50;99.90
62555;DHT22;48610;52.144;8.624;2023-04-07T01:44:14;8.60;99.90
62555;DHT22;48610;52.144;8.624;2023-04-07T01:47:15;8.40;99.90
62555;DHT22;48610;52.144;8.624;2023-04-07T01:50:16;8.30;99.90
62555;DHT22;48610;52.144;8.624;2023-04-07T01:53:17;8.40;99.90
62555;DHT22;48610;52.144;8.624;2023-04-07T01:56:18;8.50;99.90
62555;DHT22;48610;52.144;8.624;2023-04-07T01:59:18;8.50;99.90
62555;DHT22;48610;52.144;8.624;2023-04-07T02:02:19;8.60;99.90
62555;DHT22;48610;52.144;8.624;2023-04-07T02:05:20;8.60;99.90
62555;DHT22;48610;52.144;8.624;2023-04-07T02:08:23;8.70;99.90
62555;DHT22;48610;52.144;8.624;2023-04-07T02:11:25;8.70;99.90
62555;DHT22;48610;52.144;8.624;2023-04-07T02:14:27;8.70;99.90
62555;DHT22;48610;52.144;8.624;2023-04-07T02:17:28;8.60;99.90
62555;DHT22;48610;52.144;8.624;2023-04-07T02:20:30;8.60;99.90
62555;DHT22;48610;52.144;8.624;2023-04-07T02:23:34;8.60;99.90
62555;DHT22;48610;52.144;8.624;2023-04-07T02:26:35;8.60;99.90
62555;DHT22;48610;52.144;8.624;2023-04-07T02:29:35;8.60;99.90
62555;DHT22;48610;52.144;8.624;2023-04-07T02:32:36;8.50;99.90
62555;DHT22;48610;52.144;8.624;2023-04-07T02:35:37;8.40;99.90
62555;DHT22;48610;52.144;8.624;2023-04-07T02:38:37;8.30;99.90
62555;DHT22;48610;52.144;8.624;2023-04-07T02:41:38;8.30;99.90
62555;DHT22;48610;52.144;8.624;2023-04-07T02:44:38;8.30;99.90
62555;DHT22;48610;52.144;8.624;2023-04-07T02:47:39;8.20;99.90
62555;DHT22;48610;52.144;8.624;2023-04-07T02:50:40;8.20;99.90
62555;DHT22;48610;52.144;8.624;2023-04-07T02:53:41;8.10;99.90
62555;DHT22;48610;52.144;8.624;2023-04-07T02:56:41;8.00;99.90
62555;DHT22;48610;52.144;8.624;2023-04-07T02:59:42;7.90;99.90
62555;DHT22;48610;52.144;8.624;2023-04-07T03:02:42;8.10;99.90
62555;DHT22;48610;52.144;8.624;2023-04-07T03:05:43;8.00;99.90
62555;DHT22;48610;52.144;8.624;2023-04-07T03:08:43;8.00;99.90
62555;DHT22;48610;52.144;8.624;2023-04-07T03:11:44;8.00;99.90
62555;DHT22;48610;52.144;8.624;2023-04-07T03:14:45;8.20;99.90
62555;DHT22;48610;52.144;8.624;2023-04-07T03:17:45;8.10;99.90
62555;DHT22;48610;52.144;8.624;2023-04-07T03:20:47;8.00;99.90
62555;DHT22;48610;52.144;8.624;2023-04-07T03:23:48;7.80;99.90
62555;DHT22;48610;52.144;8.624;2023-04-07T03:26:48;7.80;99.90
62555;DHT22;48610;52.144;8.624;2023-04-07T03:29:52;7.90;99.90
62555;DHT22;48610;52.144;8.624;2023-04-07T03:32:52;7.80;99.90
62555;DHT22;48610;52.144;8.624;2023-04-07T03:35:53;7.70;99.90
62555;DHT22;48610;52.144;8.624;2023-04-07T03:38:53;7.80;99.90
62555;DHT22;48610;52.144;8.624;2023-04-07T03:41:54;7.70;99.90
62555;DHT22;48610;52.144;8.624;2023-04-07T03:44:55;7.80;99.90
62555;DHT22;48610;52.144;8.624;2023-04-07T03:47:56;7.70;99.90
62555;DHT22;48610;52.144;8.624;2023-04-07T03:50:56;7.70;99.90
62555;DHT22;48610;52.144;8.624;2023-04-07T03:53:57;7.70;99.90
62555;DHT22;48610;52.144;8.624;2023-04-07T03:56:58;7.70;99.90
62555;DHT22;48610;52.144;8.624;2023-04-07T03:59:58;7.70;99.90
62555;DHT22;48610;52.144;8.624;2023-04-07T04:02:59;7.70;99.90
62555;DHT22;48610;52.144;8.624;2023-04-07T04:06:00;7.60;99.90
62555;DHT22;48610;52.144;8.624;2023-04-07T04:09:00;7.60;99.90
62555;DHT22;48610;52.144;8.624;2023-04-07T04:12:01;7.50;99.90
62555;DHT22;48610;52.144;8.624;2023-04-07T04:15:02;7.50;99.90
62555;DHT22;48610;52.144;8.624;2023-04-07T04:18:02;7.40;99.90
62555;DHT22;48610;52.144;8.624;2023-04-07T04:21:03;7.50;99.90
62555;DHT22;48610;52.144;8.624;2023-04-07T04:24:03;7.50;99.90
62555;DHT22;48610;52.144;8.624;2023-04-07T04:27:04;7.40;99.90
62555;DHT22;48610;52.144;8.624;2023-04-07T04:30:05;7.50;99.90
62555;DHT22;48610;52.144;8.624;2023-04-07T04:33:06;7.50;99.90
62555;DHT22;48610;52.144;8.624;2023-04-07T04:36:06;7.50;99.90
62555;DHT22;48610;52.144;8.624;2023-04-07T04:39:07;7.50;99.90
62555;DHT22;48610;52.144;8.624;2023-04-07T04:42:08;7.40;99.90
62555;DHT22;48610;52.144;8.624;2023-04-07T04:45:08;7.40;99.90
62555;DHT22;48610;52.144;8.624;2023-04-07T04:48:09;7.40;99.90
62555;DHT22;48610;52.144;8.624;2023-04-07T04:51:10;7.40;99.90
62555;DHT22;48610;52.144;8.624;2023-04-07T04:54:11;7.40;99.90
62555;DHT22;48610;52.144;8.624;2023-04-07T04:57:11;7.50;99.90
62555;DHT22;48610;52.144;8.624;2023-04-07T05:00:12;7.50;99.90
62555;DHT22;48610;52.144;8.624;2023-04-07T05:03:13;7.40;99.90
62555;DHT22;48610;52.144;8.624;2023-04-07T05:06:14;7.50;99.90
62555;DHT22;48610;52.144;8.624;2023-04-07T05:09:14;7.50;99.90
62555;DHT22;48610;52.144;8.624;2023-04-07T05:12:15;7.50;99.90
62555;DHT22;48610;52.144;8.624;2023-04-07T05:15:16;7.40;99.90
62555;DHT22;48610;52.144;8.624;2023-04-07T05:18:16;7.50;99.90
62555;DHT22;48610;52.144;8.624;2023-04-07T05:21:17;7.50;99.90
62555;DHT22;48610;52.144;8.624;2023-04-07T05:24:19;7.60;99.90
62555;DHT22;48610;52.144;8.624;2023-04-07T05:27:20;7.70;99.90
62555;DHT22;48610;52.144;8.624;2023-04-07T05:30:21;7.70;99.90
62555;DHT22;48610;52.144;8.624;2023-04-07T05:33:21;7.80;99.90
62555;DHT22;48610;52.144;8.624;2023-04-07T05:36:22;7.70;99.90
62555;DHT22;48610;52.144;8.624;2023-04-07T05:39:23;7.60;99.90
62555;DHT22;48610;52.144;8.624;2023-04-07T05:42:23;7.70;99.90
62555;DHT22;48610;52.144;8.624;2023-04-07T05:45:24;7.60;99.90
62555;DHT22;48610;52.144;8.624;2023-04-07T05:48:24;7.80;99.90
62555;DHT22;48610;52.144;8.624;2023-04-07T05:51:25;7.90;99.90
62555;DHT22;48610;52.144;8.624;2023-04-07T05:54:26;7.90;99.90
62555;DHT22;48610;52.144;8.624;2023-04-07T05:57:27;8.00;99.90
62555;DHT22;48610;52.144;8.624;2023-04-07T06:00:28;7.90;99.90
62555;DHT22;48610;52.144;8.624;2023-04-07T06:03:29;8.00;99.90
62555;DHT22;48610;52.144;8.624;2023-04-07T06:06:29;8.00;99.90
62555;DHT22;48610;52.144;8.624;2023-04-07T06:09:30;8.10;99.90
62555;DHT22;48610;52.144;8.624;2023-04-07T06:12:31;8.10;99.90
62555;DHT22;48610;52.144;8.624;2023-04-07T06:15:31;8.00;99.90
62555;DHT22;48610;52.144;8.624;2023-04-07T06:18:32;8.10;99.90
62555;DHT22;48610;52.144;8.624;2023-04-07T06:21:33;8.10;99.90
62555;DHT22;48610;52.144;8.624;2023-04-07T06:24:33;8.20;99.90
62555;DHT22;48610;52.144;8.624;2023-04-07T06:27:34;8.10;99.90
62555;DHT22;48610;52.144;8.624;2023-04-07T06:30:35;8.10;99.90
62555;DHT22;48610;52.144;8.624;2023-04-07T06:33:36;8.20;99.90
62555;DHT22;48610;52.144;8.624;2023-04-07T06:36:36;8.20;99.90
62555;DHT22;48610;52.144;8.624;2023-04-07T06:39:37;8.30;99.90
62555;DHT22;48610;52.144;8.624;2023-04-07T06:42:38;8.40;99.90
62555;DHT22;48610;52.144;8.624;2023-04-07T06:45:38;8.40;99.90
62555;DHT22;48610;52.144;8.624;2023-04-07T06:48:39;8.40;99.90
62555;DHT22;48610;52.144;8.624;2023-04-07T06:51:40;8.60;99.90
62555;DHT22;48610;52.144;8.624;2023-04-07T06:54:40;8.50;99.90
62555;DHT22;48610;52.144;8.624;2023-04-07T06:57:41;8.60;99.90
62555;DHT22;48610;52.144;8.624;2023-04-07T07:00:41;8.60;99.90
62555;DHT22;48610;52.144;8.624;2023-04-07T07:03:42;8.70;99.90
62555;DHT22;48610;52.144;8.624;2023-04-07T07:06:42;8.80;99.90
62555;DHT22;48610;52.144;8.624;2023-04-07T07:09:43;8.90;99.90
62555;DHT22;48610;52.144;8.624;2023-04-07T07:12:43;8.80;99.90
62555;DHT22;48610;52.144;8.624;2023-04-07T07:15:44;8.90;99.90
62555;DHT22;48610;52.144;8.624;2023-04-07T07:18:45;9.10;99.90
62555;DHT22;48610;52.144;8.624;2023-04-07T07:21:45;9.00;99.90
62555;DHT22;48610;52.144;8.624;2023-04-07T07:24:46;8.90;99.90
62555;DHT22;48610;52.144;8.624;2023-04-07T07:27:46;8.80;99.90
62555;DHT22;48610;52.144;8.624;2023-04-07T07:30:51;9.10;99.90
62555;DHT22;48610;52.144;8.624;2023-04-07T07:33:51;9.10;99.90
62555;DHT22;48610;52.144;8.624;2023-04-07T07:36:52;9.20;99.90
62555;DHT22;48610;52.144;8.624;2023-04-07T07:39:52;9.10;99.90
62555;DHT22;48610;52.144;8.624;2023-04-07T07:42:53;9.10;99.90
62555;DHT22;48610;52.144;8.624;2023-04-07T07:45:54;9.20;99.90
62555;DHT22;48610;52.144;8.624;2023-04-07T07:48:55;9.50;99.90
62555;DHT22;48610;52.144;8.624;2023-04-07T07:51:55;9.70;99.90
62555;DHT22;48610;52.144;8.624;2023-04-07T07:54:56;10.00;99.90
62555;DHT22;48610;52.144;8.624;2023-04-07T07:57:57;9.70;99.90
62555;DHT22;48610;52.144;8.624;2023-04-07T08:00:57;9.80;99.90
62555;DHT22;48610;52.144;8.624;2023-04-07T08:03:58;9.70;99.90
62555;DHT22;48610;52.144;8.624;2023-04-07T08:06:59;9.70;99.90
62555;DHT22;48610;52.144;8.624;2023-04-07T08:09:59;9.90;99.90
62555;DHT22;48610;52.144;8.624;2023-04-07T08:13:00;9.90;99.90
62555;DHT22;48610;52.144;8.624;2023-04-07T08:16:01;10.00;99.90
62555;DHT22;48610;52.144;8.624;2023-04-07T08:19:01;10.20;99.90
62555;DHT22;48610;52.144;8.624;2023-04-07T08:22:02;10.30;99.90
62555;DHT22;48610;52.144;8.624;2023-04-07T08:25:03;10.20;99.90
62555;DHT22;48610;52.144;8.624;2023-04-07T08:28:03;10.30;99.90
62555;DHT22;48610;52.144;8.624;2023-04-07T08:31:04;10.20;99.90
62555;DHT22;48610;52.144;8.624;2023-04-07T08:34:05;10.00;99.90
62555;DHT22;48610;52.144;8.624;2023-04-07T08:37:06;10.00;99.90
62555;DHT22;48610;52.144;8.624;2023-04-07T08:40:09;10.10;99.90
62555;DHT22;48610;52.144;8.624;2023-04-07T08:43:11;10.30;99.90
62555;DHT22;48610;52.144;8.624;2023-04-07T08:46:12;10.40;99.90
62555;DHT22;48610;52.144;8.624;2023-04-07T08:49:14;10.50;99.90
62555;DHT22;48610;52.144;8.624;2023-04-07T08:52:20;10.60;99.90
62555;DHT22;48610;52.144;8.624;2023-04-07T08:55:22;10.80;99.90
62555;DHT22;48610;52.144;8.624;2023-04-07T08:58:23;10.90;99.90
62555;DHT22;48610;52.144;8.624;2023-04-07T09:01:25;10.60;99.90
62555;DHT22;48610;52.144;8.624;2023-04-07T09:04:27;10.50;99.90
62555;DHT22;48610;52.144;8.624;2023-04-07T09:07:27;10.70;99.90
62555;DHT22;48610;52.144;8.624;2023-04-07T09:10:28;10.90;99.90
62555;DHT22;48610;52.144;8.624;2023-04-07T09:13:28;11.10;99.90
62555;DHT22;48610;52.144;8.624;2023-04-07T09:16:31;11.40;99.90
62555;DHT22;48610;52.144;8.624;2023-04-07T09:19:32;11.70;99.90
62555;DHT22;48610;52.144;8.624;2023-04-07T09:22:37;11.60;99.90
62555;DHT22;48610;52.144;8.624;2023-04-07T09:25:38;11.70;99.90
62555;DHT22;48610;52.144;8.624;2023-04-07T09:28:41;11.60;99.90
62555;DHT22;48610;52.144;8.624;2023-04-07T09:31:46;11.70;99.90
62555;DHT22;48610;52.144;8.624;2023-04-07T09:34:57;11.70;99.90
62555;DHT22;48610;52.144;8.624;2023-04-07T09:38:05;11.40;99.90
62555;DHT22;48610;52.144;8.624;2023-04-07T09:41:11;11.80;99.90
62555;DHT22;48610;52.144;8.624;2023-04-07T09:44:12;12.10;99.90
62555;DHT22;48610;52.144;8.624;2023-04-07T09:47:12;12.40;99.90
62555;DHT22;48610;52.144;8.624;2023-04-07T09:50:13;12.70;99.90
62555;DHT22;48610;52.144;8.624;2023-04-07T09:53:14;12.70;99.90
62555;DHT22;48610;52.144;8.624;2023-04-07T09:56:17;12.30;99.90
62555;DHT22;48610;52.144;8.624;2023-04-07T09:59:20;12.50;99.90
62555;DHT22;48610;52.144;8.624;2023-04-07T10:02:21;12.60;99.90
62555;DHT22;48610;52.144;8.624;2023-04-07T10:05:22;12.90;99.90
62555;DHT22;48610;52.144;8.624;2023-04-07T10:08:23;13.30;99.90
62555;DHT22;48610;52.144;8.624;2023-04-07T10:11:24;13.10;99.90
62555;DHT22;48610;52.144;8.624;2023-04-07T10:14:30;13.10;99.90
62555;DHT22;48610;52.144;8.624;2023-04-07T10:17:31;13.10;99.90
62555;DHT22;48610;52.144;8.624;2023-04-07T10:20:32;13.40;99.90
62555;DHT22;48610;52.144;8.624;2023-04-07T10:23:55;13.40;99.90
62555;DHT22;48610;52.144;8.624;2023-04-07T10:27:06;13.90;99.90
62555;DHT22;48610;52.144;8.624;2023-04-07T10:30:13;13.60;99.90
62555;DHT22;48610;52.144;8.624;2023-04-07T10:33:14;13.90;99.90
62555;DHT22;48610;52.144;8.624;2023-04-07T10:36:16;14.20;99.90
62555;DHT22;48610;52.144;8.624;2023-04-07T10:49:07;13.90;99.90
62555;DHT22;48610;52.144;8.624;2023-04-07T10:55:42;13.70;98.60
62555;DHT22;48610;52.144;8.624;2023-04-07T10:58:43;13.90;97.30
62555;DHT22;48610;52.144;8.624;2023-04-07T11:01:44;13.80;95.20
62555;DHT22;48610;52.144;8.624;2023-04-07T11:04:45;13.80;95.00
62555;DHT22;48610;52.144;8.624;2023-04-07T11:07:48;13.80;96.00
62555;DHT22;48610;52.144;8.624;2023-04-07T11:10:49;13.80;94.80
62555;DHT22;48610;52.144;8.624;2023-04-07T11:13:50;13.90;95.90
62555;DHT22;48610;52.144;8.624;2023-04-07T11:16:50;14.10;95.30
62555;DHT22;48610;52.144;8.624;2023-04-07T11:19:52;13.90;97.50
62555;DHT22;48610;52.144;8.624;2023-04-07T11:22:59;14.20;94.90
62555;DHT22;48610;52.144;8.624;2023-04-07T11:26:01;14.20;92.70
62555;DHT22;48610;52.144;8.624;2023-04-07T11:29:01;14.10;93.40
62555;DHT22;48610;52.144;8.624;2023-04-07T11:32:03;14.40;95.80
62555;DHT22;48610;52.144;8.624;2023-04-07T11:35:07;14.50;92.70
62555;DHT22;48610;52.144;8.624;2023-04-07T11:38:08;14.20;93.00
62555;DHT22;48610;52.144;8.624;2023-04-07T11:41:10;14.30;91.40
62555;DHT22;48610;52.144;8.624;2023-04-07T11:44:12;14.20;93.30
62555;DHT22;48610;52.144;8.624;2023-04-07T11:47:13;14.20;94.10
62555;DHT22;48610;52.144;8.624;2023-04-07T11:50:13;14.30;91.10
62555;DHT22;48610;52.144;8.624;2023-04-07T11:53:24;14.10;91.90
62555;DHT22;48610;52.144;8.624;2023-04-07T11:56:25;14.20;91.60
62555;DHT22;48610;52.144;8.624;2023-04-07T11:59:27;14.70;91.90
62555;DHT22;48610;52.144;8.624;2023-04-07T12:02:32;14.10;90.10
62555;DHT22;48610;52.144;8.624;2023-04-07T12:05:43;14.40;95.30
62555;DHT22;48610;52.144;8.624;2023-04-07T12:08:44;14.60;90.80
62555;DHT22;48610;52.144;8.624;2023-04-07T12:11:48;14.50;90.10
62555;DHT22;48610;52.144;8.624;2023-04-07T12:14:49;14.30;93.50
62555;DHT22;48610;52.144;8.624;2023-04-07T12:17:50;14.20;89.80
62555;DHT22;48610;52.144;8.624;2023-04-07T12:20:51;14.30;91.70
62555;DHT22;48610;52.144;8.624;2023-04-07T12:23:51;14.40;90.00
62555;DHT22;48610;52.144;8.624;2023-04-07T12:26:52;14.30;89.80
62555;DHT22;48610;52.144;8.624;2023-04-07T12:29:53;14.20;89.40
62555;DHT22;48610;52.144;8.624;2023-04-07T12:32:53;14.10;90.10
62555;DHT22;48610;52.144;8.624;2023-04-07T12:35:54;14.40;89.80
62555;DHT22;48610;52.144;8.624;2023-04-07T12:38:55;14.70;90.20
62555;DHT22;48610;52.144;8.624;2023-04-07T12:41:56;15.40;82.90
62555;DHT22;48610;52.144;8.624;2023-04-07T12:44:57;15.60;83.90
62555;DHT22;48610;52.144;8.624;2023-04-07T12:47:58;15.50;78.90
62555;DHT22;48610;52.144;8.624;2023-04-07T12:50:59;14.90;86.80
62555;DHT22;48610;52.144;8.624;2023-04-07T12:54:00;14.70;86.60
62555;DHT22;48610;52.144;8.624;2023-04-07T12:57:01;15.20;84.80
62555;DHT22;48610;52.144;8.624;2023-04-07T13:00:02;15.10;86.10
62555;DHT22;48610;52.144;8.624;2023-04-07T13:03:03;15.30;82.80
62555;DHT22;48610;52.144;8.624;2023-04-07T13:06:03;15.40;79.50
62555;DHT22;48610;52.144;8.624;2023-04-07T13:09:04;15.30;83.60
62555;DHT22;48610;52.144;8.624;2023-04-07T13:12:05;15.40;85.20
62555;DHT22;48610;52.144;8.624;2023-04-07T13:15:06;15.10;80.20
62555;DHT22;48610;52.144;8.624;2023-04-07T13:18:06;15.30;87.00
62555;DHT22;48610;52.144;8.624;2023-04-07T13:21:08;15.00;84.50
62555;DHT22;48610;52.144;8.624;2023-04-07T13:24:09;15.20;84.40
62555;DHT22;48610;52.144;8.624;2023-04-07T13:27:09;14.80;83.50
62555;DHT22;48610;52.144;8.624;2023-04-07T13:30:10;15.30;82.00
62555;DHT22;48610;52.144;8.624;2023-04-07T13:33:11;15.60;88.50
62555;DHT22;48610;52.144;8.624;2023-04-07T13:36:12;15.90;82.50
62555;DHT22;48610;52.144;8.624;2023-04-07T13:39:12;15.70;81.70
62555;DHT22;48610;52.144;8.624;2023-04-07T13:42:13;15.30;79.20
62555;DHT22;48610;52.144;8.624;2023-04-07T13:45:16;15.40;76.90
62555;DHT22;48610;52.144;8.624;2023-04-07T13:48:17;15.50;74.50
62555;DHT22;48610;52.144;8.624;2023-04-07T13:51:18;15.80;78.90
62555;DHT22;48610;52.144;8.624;2023-04-07T13:54:18;15.70;72.40
62555;DHT22;48610;52.144;8.624;2023-04-07T13:57:19;15.80;72.80
62555;DHT22;48610;52.144;8.624;2023-04-07T14:00:20;15.80;74.10
62555;DHT22;48610;52.144;8.624;2023-04-07T14:03:21;15.90;73.70
62555;DHT22;48610;52.144;8.624;2023-04-07T14:06:21;16.10;71.30
62555;DHT22;48610;52.144;8.624;2023-04-07T14:09:22;16.40;73.20
62555;DHT22;48610;52.144;8.624;2023-04-07T14:12:23;16.30;69.10
62555;DHT22;48610;52.144;8.624;2023-04-07T14:15:24;16.30;71.20
62555;DHT22;48610;52.144;8.624;2023-04-07T14:18:24;16.30;68.70
62555;DHT22;48610;52.144;8.624;2023-04-07T14:21:27;16.10;70.10
62555;DHT22;48610;52.144;8.624;2023-04-07T14:24:27;15.80;68.00
62555;DHT22;48610;52.144;8.624;2023-04-07T14:27:28;15.50;70.80
62555;DHT22;48610;52.144;8.624;2023-04-07T14:30:30;15.30;78.70
62555;DHT22;48610;52.144;8.624;2023-04-07T14:33:30;15.40;71.70
62555;DHT22;48610;52.144;8.624;2023-04-07T14:36:31;15.50;71.00
62555;DHT22;48610;52.144;8.624;2023-04-07T14:39:32;15.50;72.20
62555;DHT22;48610;52.144;8.624;2023-04-07T14:42:33;15.40;69.80
62555;DHT22;48610;52.144;8.624;2023-04-07T14:45:34;14.80;71.60
62555;DHT22;48610;52.144;8.624;2023-04-07T14:48:35;15.00;73.00
62555;DHT22;48610;52.144;8.624;2023-04-07T14:51:35;15.40;73.30
62555;DHT22;48610;52.144;8.624;2023-04-07T14:54:36;15.70;69.20
62555;DHT22;48610;52.144;8.624;2023-04-07T14:57:37;15.70;71.10
62555;DHT22;48610;52.144;8.624;2023-04-07T15:00:38;15.90;75.00
62555;DHT22;48610;52.144;8.624;2023-04-07T15:03:38;15.70;68.10
62555;DHT22;48610;52.144;8.624;2023-04-07T15:06:42;15.60;70.00
62555;DHT22;48610;52.144;8.624;2023-04-07T15:09:43;15.50;68.30
62555;DHT22;48610;52.144;8.624;2023-04-07T15:12:44;15.50;69.80
62555;DHT22;48610;52.144;8.624;2023-04-07T15:15:48;15.40;74.70
62555;DHT22;48610;52.144;8.624;2023-04-07T15:18:49;15.20;69.80
62555;DHT22;48610;52.144;8.624;2023-04-07T15:21:50;15.30;70.40
62555;DHT22;48610;52.144;8.624;2023-04-07T15:24:50;15.30;68.40
62555;DHT22;48610;52.144;8.624;2023-04-07T15:27:51;15.20;68.80
62555;DHT22;48610;52.144;8.624;2023-04-07T15:30:52;15.00;72.00
62555;DHT22;48610;52.144;8.624;2023-04-07T15:33:52;15.00;70.70
62555;DHT22;48610;52.144;8.624;2023-04-07T15:36:53;15.10;72.20
62555;DHT22;48610;52.144;8.624;2023-04-07T15:39:53;15.30;71.60
62555;DHT22;48610;52.144;8.624;2023-04-07T15:42:54;15.30;75.40
62555;DHT22;48610;52.144;8.624;2023-04-07T15:45:54;15.50;67.60
62555;DHT22;48610;52.144;8.624;2023-04-07T15:48:55;15.40;70.50
62555;DHT22;48610;52.144;8.624;2023-04-07T15:51:56;15.00;68.60
62555;DHT22;48610;52.144;8.624;2023-04-07T15:54:56;14.80;66.80
62555;DHT22;48610;52.144;8.624;2023-04-07T15:57:57;14.80;72.20
62555;DHT22;48610;52.144;8.624;2023-04-07T16:00:58;14.90;71.10
62555;DHT22;48610;52.144;8.624;2023-04-07T16:03:59;15.10;72.30
62555;DHT22;48610;52.144;8.624;2023-04-07T16:07:00;15.10;68.30
62555;DHT22;48610;52.144;8.624;2023-04-07T16:10:01;14.90;67.50
62555;DHT22;48610;52.144;8.624;2023-04-07T16:13:02;15.00;66.70
62555;DHT22;48610;52.144;8.624;2023-04-07T16:16:02;15.10;66.70
62555;DHT22;48610;52.144;8.624;2023-04-07T16:19:03;15.20;68.30
62555;DHT22;48610;52.144;8.624;2023-04-07T16:22:03;15.20;69.10
62555;DHT22;48610;52.144;8.624;2023-04-07T16:25:05;15.00;69.00
62555;DHT22;48610;52.144;8.624;2023-04-07T16:28:05;14.70;69.00
62555;DHT22;48610;52.144;8.624;2023-04-07T16:31:06;14.50;71.20
62555;DHT22;48610;52.144;8.624;2023-04-07T16:34:08;14.60;72.00
62555;DHT22;48610;52.144;8.624;2023-04-07T16:37:08;14.70;68.00
62555;DHT22;48610;52.144;8.624;2023-04-07T16:40:09;14.70;71.70
62555;DHT22;48610;52.144;8.624;2023-04-07T16:43:10;14.50;66.80
62555;DHT22;48610;52.144;8.624;2023-04-07T16:46:11;14.40;68.20
62555;DHT22;48610;52.144;8.624;2023-04-07T16:49:11;14.20;68.00
62555;DHT22;48610;52.144;8.624;2023-04-07T16:52:12;14.10;70.00
62555;DHT22;48610;52.144;8.624;2023-04-07T16:55:12;14.10;70.80
62555;DHT22;48610;52.144;8.624;2023-04-07T16:58:13;14.00;70.80
62555;DHT22;48610;52.144;8.624;2023-04-07T17:01:18;14.10;69.20
62555;DHT22;48610;52.144;8.624;2023-04-07T17:04:18;14.10;68.70
62555;DHT22;48610;52.144;8.624;2023-04-07T17:07:19;14.10;67.70
62555;DHT22;48610;52.144;8.624;2023-04-07T17:10:20;14.00;71.30
62555;DHT22;48610;52.144;8.624;2023-04-07T17:13:20;14.00;69.50
62555;DHT22;48610;52.144;8.624;2023-04-07T17:16:21;13.90;69.80
62555;DHT22;48610;52.144;8.624;2023-04-07T17:19:21;13.80;68.60
62555;DHT22;48610;52.144;8.624;2023-04-07T17:22:22;13.60;70.50
62555;DHT22;48610;52.144;8.624;2023-04-07T17:25:23;13.70;70.90
62555;DHT22;48610;52.144;8.624;2023-04-07T17:28:25;13.70;69.80
62555;DHT22;48610;52.144;8.624;2023-04-07T17:31:26;13.50;68.40
62555;DHT22;48610;52.144;8.624;2023-04-07T17:34:27;13.40;68.40
62555;DHT22;48610;52.144;8.624;2023-04-07T17:37:27;13.30;68.90
62555;DHT22;48610;52.144;8.624;2023-04-07T17:40:31;13.30;70.50
62555;DHT22;48610;52.144;8.624;2023-04-07T17:43:32;13.30;70.40
62555;DHT22;48610;52.144;8.624;2023-04-07T17:46:32;13.30;71.80
62555;DHT22;48610;52.144;8.624;2023-04-07T17:49:33;13.10;71.40
62555;DHT22;48610;52.144;8.624;2023-04-07T17:52:34;13.10;71.10
62555;DHT22;48610;52.144;8.624;2023-04-07T17:55:35;12.90;72.60
62555;DHT22;48610;52.144;8.624;2023-04-07T17:58:36;12.90;71.60
62555;DHT22;48610;52.144;8.624;2023-04-07T18:01:36;12.90;72.20
62555;DHT22;48610;52.144;8.624;2023-04-07T18:04:37;12.80;72.20
62555;DHT22;48610;52.144;8.624;2023-04-07T18:07:37;12.90;72.60
62555;DHT22;48610;52.144;8.624;2023-04-07T18:10:38;12.70;72.70
62555;DHT22;48610;52.144;8.624;2023-04-07T18:13:39;12.40;73.10
62555;DHT22;48610;52.144;8.624;2023-04-07T18:16:39;12.50;72.40
62555;DHT22;48610;52.144;8.624;2023-04-07T18:19:40;12.50;73.30
62555;DHT22;48610;52.144;8.624;2023-04-07T18:22:40;12.50;72.70
62555;DHT22;48610;52.144;8.624;2023-04-07T18:25:41;12.50;73.10
62555;DHT22;48610;52.144;8.624;2023-04-07T18:28:42;12.60;73.00
62555;DHT22;48610;52.144;8.624;2023-04-07T18:31:43;12.40;74.00
62555;DHT22;48610;52.144;8.624;2023-04-07T18:34:46;12.40;72.70
62555;DHT22;48610;52.144;8.624;2023-04-07T18:37:47;12.50;73.50
62555;DHT22;48610;52.144;8.624;2023-04-07T18:40:47;12.40;74.20
62555;DHT22;48610;52.144;8.624;2023-04-07T18:43:48;12.30;74.30
62555;DHT22;48610;52.144;8.624;2023-04-07T18:46:48;12.30;73.00
62555;DHT22;48610;52.144;8.624;2023-04-07T18:49:49;12.30;73.30
62555;DHT22;48610;52.144;8.624;2023-04-07T18:52:49;12.20;72.80
62555;DHT22;48610;52.144;8.624;2023-04-07T18:55:50;12.20;72.70
62555;DHT22;48610;52.144;8.624;2023-04-07T18:58:51;12.10;72.50
62555;DHT22;48610;52.144;8.624;2023-04-07T19:01:52;11.90;73.40
62555;DHT22;48610;52.144;8.624;2023-04-07T19:04:52;12.00;72.80
62555;DHT22;48610;52.144;8.624;2023-04-07T19:07:53;12.00;72.80
62555;DHT22;48610;52.144;8.624;2023-04-07T19:10:53;11.90;72.10
62555;DHT22;48610;52.144;8.624;2023-04-07T19:13:54;12.00;72.60
62555;DHT22;48610;52.144;8.624;2023-04-07T19:16:55;11.80;73.20
62555;DHT22;48610;52.144;8.624;2023-04-07T19:19:56;11.80;72.70
62555;DHT22;48610;52.144;8.624;2023-04-07T19:22:56;11.90;73.20
62555;DHT22;48610;52.144;8.624;2023-04-07T19:25:58;12.00;72.40
62555;DHT22;48610;52.144;8.624;2023-04-07T19:28:58;11.90;73.60
62555;DHT22;48610;52.144;8.624;2023-04-07T19:31:59;11.80;73.80